Time;durP1;ratioP1;P1;durP2;ratioP2;P2;SDS_P1;SDS_P2;PMS_P1;PMS_P2;Temp;Humidity;BMP_temperature;BMP_pressure;BME280_temperature;BME280_humidity;BME280_pressure;Samples;Min_cycle;Max_cycle;Signal;HPM_P1;HPM_P2
2023/06/14 00:00:21;;;;;;;75.83;73.40;;;15.20;99.90;;;;;;5053359;28;21144;-85
2023/06/14 00:02:46;;;;;;;78.70;76.10;;;15.20;99.90;;;;;;5040730;28;20214;-88
2023/06/14 00:05:13;;;;;;;78.90;75.97;;;15.10;99.90;;;;;;5051955;28;20281;-87
2023/06/14 00:07:43;;;;;;;78.20;75.67;;;15.10;99.90;;;;;;5054456;28;20721;-88
2023/06/14 00:10:11;;;;;;;82.07;79.47;;;15.10;99.90;;;;;;5045907;28;20228;-85
2023/06/14 00:12:38;;;;;;;83.23;80.27;;;15.10;99.90;;;;;;5038253;28;20549;-86
2023/06/14 00:15:05;;;;;;;85.83;83.13;;;15.10;99.90;;;;;;5054666;28;20241;-86
2023/06/14 00:17:31;;;;;;;83.40;80.37;;;15.10;99.90;;;;;;5021571;28;20218;-87
2023/06/14 00:19:58;;;;;;;81.00;78.20;;;15.10;99.90;;;;;;5056386;28;20221;-87
2023/06/14 00:22:24;;;;;;;85.47;82.77;;;15.10;99.90;;;;;;5039005;28;20392;-86
2023/06/14 00:24:51;;;;;;;85.83;83.23;;;15.10;99.90;;;;;;5052605;28;20222;-86
2023/06/14 00:27:17;;;;;;;83.27;80.57;;;15.10;99.90;;;;;;5036219;28;20323;-86
2023/06/14 00:29:42;;;;;;;90.10;87.37;;;15.10;99.90;;;;;;5037754;28;20277;-86
2023/06/14 00:32:08;;;;;;;81.77;79.07;;;15.10;99.90;;;;;;5019616;28;20240;-86
2023/06/14 00:34:34;;;;;;;89.70;86.77;;;15.10;99.90;;;;;;5052470;28;21021;-86
2023/06/14 00:37:00;;;;;;;89.77;87.03;;;15.10;99.90;;;;;;5037979;28;20275;-86
2023/06/14 00:39:26;;;;;;;86.20;83.33;;;15.10;99.90;;;;;;5053332;28;20311;-86
2023/06/14 00:41:52;;;;;;;88.20;85.33;;;15.00;99.90;;;;;;5038511;28;20242;-88
2023/06/14 00:44:18;;;;;;;89.07;86.33;;;15.00;99.90;;;;;;5037073;28;20800;-85
2023/06/14 00:46:45;;;;;;;93.87;90.97;;;14.90;99.90;;;;;;5036542;28;20195;-85
2023/06/14 00:49:15;;;;;;;90.57;87.77;;;14.90;99.90;;;;;;5039123;28;20232;-86
2023/06/14 00:51:42;;;;;;;84.50;81.90;;;14.90;99.90;;;;;;5036875;28;20287;-86
2023/06/14 00:54:08;;;;;;;90.63;87.77;;;14.90;99.90;;;;;;5036058;28;20217;-86
2023/06/14 00:56:36;;;;;;;91.60;88.70;;;14.80;99.90;;;;;;5036211;28;20734;-86
2023/06/14 00:59:02;;;;;;;86.93;84.13;;;14.80;99.90;;;;;;5038186;28;20814;-87
2023/06/14 01:01:32;;;;;;;90.90;88.10;;;14.80;99.90;;;;;;5050831;28;20268;-87
2023/06/14 01:03:58;;;;;;;87.77;85.00;;;14.80;99.90;;;;;;5036506;28;20221;-87
2023/06/14 01:06:44;;;;;;;92.80;89.80;;;14.80;99.90;;;;;;5018928;28;20967;-88
2023/06/14 01:09:33;;;;;;;88.83;86.03;;;14.80;99.90;;;;;;5036176;28;20232;-88
2023/06/14 01:12:11;;;;;;;84.10;81.40;;;14.80;99.90;;;;;;5035612;28;20304;-88
2023/06/14 01:14:37;;;;;;;87.43;84.73;;;14.80;99.90;;;;;;5035073;28;20248;-86
2023/06/14 01:17:04;;;;;;;89.93;87.13;;;14.80;99.90;;;;;;5038120;28;20185;-85
2023/06/14 01:19:31;;;;;;;88.57;85.77;;;14.80;99.90;;;;;;5035917;28;20228;-86
2023/06/14 01:21:59;;;;;;;84.77;81.87;;;14.80;99.90;;;;;;5036984;28;20258;-88
2023/06/14 01:24:28;;;;;;;94.97;92.07;;;14.80;99.90;;;;;;5037746;28;20557;-86
2023/06/14 01:26:56;;;;;;;91.27;88.50;;;14.80;99.90;;;;;;5032759;28;20230;-88
2023/06/14 01:29:25;;;;;;;87.30;84.60;;;14.80;99.90;;;;;;5035703;28;20701;-86
2023/06/14 01:31:51;;;;;;;92.03;89.17;;;14.70;99.90;;;;;;5037885;28;21024;-86
2023/06/14 01:34:17;;;;;;;94.47;91.57;;;14.70;99.90;;;;;;5037325;28;20291;-87
2023/06/14 01:36:45;;;;;;;96.33;93.27;;;14.60;99.90;;;;;;5036823;28;20226;-86
2023/06/14 01:39:15;;;;;;;86.37;83.50;;;14.60;99.90;;;;;;5051731;28;20226;-87
2023/06/14 01:41:42;;;;;;;86.97;84.37;;;14.60;99.90;;;;;;5055116;28;20245;-87
2023/06/14 01:44:12;;;;;;;86.27;83.57;;;14.60;99.90;;;;;;5034920;28;20245;-85
2023/06/14 01:46:38;;;;;;;87.10;84.40;;;14.60;99.90;;;;;;5035536;28;20216;-88
2023/06/14 01:49:04;;;;;;;85.93;83.03;;;14.50;99.90;;;;;;5019271;28;20229;-86
2023/06/14 01:51:30;;;;;;;87.23;84.43;;;14.50;99.90;;;;;;5018078;28;20217;-87
2023/06/14 01:53:57;;;;;;;85.07;82.27;;;14.40;99.90;;;;;;5037162;28;20225;-86
2023/06/14 01:56:23;;;;;;;83.90;81.10;;;14.40;99.90;;;;;;5043235;28;20233;-87
2023/06/14 01:58:49;;;;;;;83.57;80.93;;;14.30;99.90;;;;;;5019497;28;20221;-87
2023/06/14 02:01:16;;;;;;;74.83;72.37;;;14.30;99.90;;;;;;5051058;28;20218;-88
2023/06/14 02:03:42;;;;;;;76.57;73.23;;;14.20;99.90;;;;;;5036593;28;20232;-88
2023/06/14 02:06:08;;;;;;;72.77;70.37;;;14.20;99.90;;;;;;5052037;28;20252;-88
2023/06/14 02:08:33;;;;;;;79.87;77.37;;;14.20;99.90;;;;;;5036283;28;20246;-88
2023/06/14 02:10:59;;;;;;;70.43;67.93;;;14.10;99.90;;;;;;5036421;28;20190;-88
2023/06/14 02:13:25;;;;;;;73.37;71.07;;;14.10;99.90;;;;;;5033373;28;20250;-89
2023/06/14 02:15:52;;;;;;;71.77;69.47;;;14.10;99.90;;;;;;5032775;28;20222;-88
2023/06/14 02:18:18;;;;;;;76.03;73.43;;;14.10;99.90;;;;;;5049038;28;20688;-88
2023/06/14 02:20:44;;;;;;;74.07;71.57;;;14.10;99.90;;;;;;5035624;28;20227;-88
2023/06/14 02:23:10;;;;;;;71.43;69.23;;;14.10;99.90;;;;;;5036038;28;20195;-88
2023/06/14 02:25:36;;;;;;;71.87;69.60;;;14.00;99.90;;;;;;5018681;28;20195;-87
2023/06/14 02:28:02;;;;;;;75.97;73.50;;;14.00;99.90;;;;;;5033096;28;20347;-88
2023/06/14 02:30:27;;;;;;;68.73;66.53;;;14.00;99.90;;;;;;5034721;28;20226;-88
2023/06/14 02:32:53;;;;;;;71.13;68.83;;;14.00;99.90;;;;;;5034261;28;20214;-88
2023/06/14 02:35:20;;;;;;;67.70;65.50;;;14.00;99.90;;;;;;5018250;28;20371;-88
2023/06/14 02:37:46;;;;;;;70.17;67.93;;;13.90;99.90;;;;;;5020280;28;20823;-88
2023/06/14 02:40:12;;;;;;;65.73;63.60;;;13.90;99.90;;;;;;5035663;28;20802;-87
2023/06/14 02:42:38;;;;;;;72.23;69.73;;;13.90;99.90;;;;;;5049803;28;20214;-88
2023/06/14 02:45:04;;;;;;;71.90;69.70;;;13.90;99.90;;;;;;5018686;28;20684;-88
2023/06/14 02:47:30;;;;;;;70.07;67.80;;;13.90;99.90;;;;;;5035239;28;20230;-88
2023/06/14 02:49:55;;;;;;;64.00;61.90;;;13.90;99.90;;;;;;5035751;28;20199;-88
2023/06/14 02:52:21;;;;;;;65.37;63.27;;;13.80;99.90;;;;;;5035379;28;20213;-88
2023/06/14 02:54:48;;;;;;;63.73;61.67;;;13.80;99.90;;;;;;5035064;28;20761;-88
2023/06/14 02:57:14;;;;;;;60.77;58.80;;;13.80;99.90;;;;;;5034921;28;20260;-87
2023/06/14 02:59:40;;;;;;;56.63;54.63;;;13.80;99.90;;;;;;5035422;28;21062;-87
2023/06/14 03:02:06;;;;;;;57.50;55.60;;;13.80;99.90;;;;;;5033098;28;20536;-85
2023/06/14 03:04:37;;;;;;;52.30;50.40;;;13.70;99.90;;;;;;5031842;28;20619;-88
2023/06/14 03:07:08;;;;;;;54.47;52.70;;;13.70;99.90;;;;;;5046910;28;20328;-88
2023/06/14 03:09:36;;;;;;;59.37;57.40;;;13.70;99.90;;;;;;5031892;28;20392;-88
2023/06/14 03:12:03;;;;;;;51.83;50.10;;;13.70;99.90;;;;;;5048163;28;20268;-87
2023/06/14 03:14:30;;;;;;;51.30;49.50;;;13.70;99.90;;;;;;5034746;28;20221;-88
2023/06/14 03:16:56;;;;;;;51.93;50.20;;;13.70;99.90;;;;;;5033637;28;20201;-88
2023/06/14 03:19:23;;;;;;;52.70;50.70;;;13.70;99.90;;;;;;5049798;28;20288;-88
2023/06/14 03:21:49;;;;;;;53.63;51.80;;;13.70;99.90;;;;;;5049236;28;20265;-88
2023/06/14 03:24:18;;;;;;;54.47;52.67;;;13.70;99.90;;;;;;5037911;28;20221;-87
2023/06/14 03:26:44;;;;;;;48.43;46.83;;;13.70;99.90;;;;;;5023947;28;20214;-86
2023/06/14 03:29:09;;;;;;;48.90;47.27;;;13.80;99.90;;;;;;5035495;28;20190;-86
2023/06/14 03:31:35;;;;;;;50.57;48.90;;;13.70;99.90;;;;;;5038081;28;20930;-89
2023/06/14 03:34:01;;;;;;;51.07;49.23;;;13.80;99.90;;;;;;5036925;28;20219;-87
2023/06/14 03:36:30;;;;;;;48.20;46.60;;;13.80;99.90;;;;;;5034439;28;21010;-86
2023/06/14 03:38:56;;;;;;;46.43;44.93;;;13.80;99.90;;;;;;5036106;28;20376;-87
2023/06/14 03:41:22;;;;;;;42.13;40.67;;;13.80;99.90;;;;;;5032675;28;20298;-88
2023/06/14 03:43:48;;;;;;;45.80;44.27;;;13.90;99.90;;;;;;5015154;28;20185;-87
2023/06/14 03:46:13;;;;;;;43.70;42.23;;;13.90;99.90;;;;;;5044521;28;20240;-89
2023/06/14 03:48:39;;;;;;;42.77;41.33;;;14.00;99.90;;;;;;5019199;28;20249;-87
2023/06/14 03:51:05;;;;;;;42.83;41.13;;;14.00;99.90;;;;;;5038085;28;20226;-88
2023/06/14 03:53:31;;;;;;;39.20;37.50;;;14.00;99.90;;;;;;5033593;28;20225;-88
2023/06/14 03:55:57;;;;;;;40.50;39.17;;;14.10;99.90;;;;;;5037232;28;21013;-87
2023/06/14 03:58:23;;;;;;;41.83;40.43;;;14.10;99.90;;;;;;5032789;28;20240;-87
2023/06/14 04:00:49;;;;;;;39.87;38.53;;;14.20;99.90;;;;;;5037458;28;20683;-88
2023/06/14 04:03:19;;;;;;;40.47;38.97;;;14.20;99.90;;;;;;5052602;28;21023;-87
2023/06/14 04:05:49;;;;;;;41.63;40.23;;;14.20;99.90;;;;;;5037060;28;20229;-86
2023/06/14 04:08:15;;;;;;;44.47;43.00;;;14.30;99.90;;;;;;5037265;28;20209;-87
2023/06/14 04:10:41;;;;;;;38.80;37.53;;;14.30;99.90;;;;;;5038490;28;20615;-87
2023/06/14 04:13:07;;;;;;;32.73;31.63;;;14.40;99.90;;;;;;5037413;28;20214;-85
2023/06/14 04:15:33;;;;;;;33.17;32.07;;;14.40;99.90;;;;;;5036685;28;20296;-88
2023/06/14 04:17:59;;;;;;;24.03;23.00;;;14.50;99.90;;;;;;5053192;28;20246;-87
2023/06/14 04:20:25;;;;;;;20.63;19.83;;;14.50;99.90;;;;;;5019485;28;20234;-88
2023/06/14 04:22:52;;;;;;;15.37;14.77;;;14.60;99.90;;;;;;5050265;28;20252;-88
2023/06/14 04:25:18;;;;;;;10.03;9.63;;;14.70;99.90;;;;;;5033717;28;20218;-87
2023/06/14 04:27:44;;;;;;;9.47;8.97;;;14.80;99.90;;;;;;5054658;28;20223;-86
2023/06/14 04:30:10;;;;;;;8.27;7.87;;;14.80;99.90;;;;;;5038762;28;20217;-87
2023/06/14 04:32:39;;;;;;;8.20;7.57;;;14.80;99.90;;;;;;5018957;28;20734;-87
2023/06/14 04:35:08;;;;;;;8.23;7.83;;;14.90;99.90;;;;;;5035767;28;20229;-85
2023/06/14 04:37:34;;;;;;;8.13;7.63;;;15.00;99.90;;;;;;5038208;28;20210;-88
2023/06/14 04:40:00;;;;;;;8.53;8.03;;;15.00;99.90;;;;;;5051788;28;20649;-87
2023/06/14 04:42:30;;;;;;;6.97;6.57;;;15.10;99.90;;;;;;5017746;28;20227;-87
2023/06/14 04:44:56;;;;;;;7.57;7.27;;;15.10;99.90;;;;;;5037082;28;20540;-88
2023/06/14 04:47:24;;;;;;;7.50;6.80;;;15.10;99.90;;;;;;5033933;28;20214;-87
2023/06/14 04:49:53;;;;;;;6.00;5.70;;;15.20;99.90;;;;;;5037133;28;20186;-86
2023/06/14 04:52:20;;;;;;;7.70;7.33;;;15.30;99.90;;;;;;5037739;28;20320;-89
2023/06/14 04:54:47;;;;;;;7.17;6.87;;;15.30;99.90;;;;;;5037481;28;20252;-88
2023/06/14 04:57:14;;;;;;;7.87;7.57;;;15.40;99.90;;;;;;5036712;28;20218;-86
2023/06/14 04:59:40;;;;;;;7.63;7.00;;;15.50;99.90;;;;;;5053101;28;20236;-87
2023/06/14 05:02:06;;;;;;;6.80;6.50;;;15.50;99.90;;;;;;5032834;28;20178;-85
2023/06/14 05:04:32;;;;;;;8.10;7.60;;;15.60;99.90;;;;;;5034698;28;20632;-88
2023/06/14 05:06:58;;;;;;;7.17;6.73;;;15.70;99.90;;;;;;5050956;28;20225;-87
2023/06/14 05:09:24;;;;;;;7.27;6.77;;;15.70;99.90;;;;;;5034299;28;20229;-89
2023/06/14 05:11:50;;;;;;;7.57;7.17;;;15.90;99.90;;;;;;5033297;28;20218;-87
2023/06/14 05:14:17;;;;;;;6.33;6.03;;;16.10;99.90;;;;;;5053960;28;20191;-87
2023/06/14 05:16:43;;;;;;;7.23;6.87;;;17.50;99.90;;;;;;5037977;28;20205;-89
2023/06/14 05:19:10;;;;;;;6.70;6.40;;;19.50;99.90;;;;;;5051342;28;20225;-92
2023/06/14 05:21:37;;;;;;;7.37;6.97;;;21.30;99.90;;;;;;5043729;28;20265;-89
2023/06/14 05:24:03;;;;;;;12.13;11.50;;;21.90;99.90;;;;;;5037015;28;20215;-91
2023/06/14 05:26:29;;;;;;;15.50;14.80;;;20.90;99.90;;;;;;5033805;28;20222;-89
2023/06/14 05:28:57;;;;;;;92.23;89.37;;;20.60;99.90;;;;;;5038634;28;20195;-89
2023/06/14 05:31:25;;;;;;;114.80;111.27;;;22.10;99.90;;;;;;5051643;28;20249;-89
2023/06/14 05:33:52;;;;;;;113.97;110.30;;;23.00;99.90;;;;;;5043986;28;20250;-90
2023/06/14 05:36:18;;;;;;;124.40;120.67;;;22.80;99.90;;;;;;5035773;28;20228;-90
2023/06/14 05:38:45;;;;;;;133.67;129.67;;;22.90;99.90;;;;;;5032869;28;20252;-89
2023/06/14 05:41:11;;;;;;;146.97;142.37;;;23.10;99.90;;;;;;5033234;28;20182;-89
2023/06/14 05:43:36;;;;;;;172.23;167.10;;;23.70;99.90;;;;;;5052189;28;20225;-89
2023/06/14 05:46:02;;;;;;;190.10;184.17;;;23.50;99.90;;;;;;5035596;28;20987;-90
2023/06/14 05:48:28;;;;;;;196.07;190.37;;;23.50;99.90;;;;;;5049843;28;20686;-88
2023/06/14 05:50:54;;;;;;;209.03;202.90;;;23.60;99.90;;;;;;5034290;28;20230;-88
2023/06/14 05:53:20;;;;;;;207.33;201.27;;;23.60;99.90;;;;;;5036771;28;20197;-90
2023/06/14 05:55:46;;;;;;;216.13;209.90;;;23.10;99.90;;;;;;5018872;28;20186;-90
2023/06/14 05:58:13;;;;;;;212.48;206.23;;;23.60;99.90;;;;;;5016964;28;20240;-90
2023/06/14 06:00:39;;;;;;;217.73;211.48;;;24.10;99.90;;;;;;5036302;28;20265;-91
2023/06/14 06:03:07;;;;;;;204.13;198.23;;;23.60;99.90;;;;;;5051731;28;20226;-89
2023/06/14 06:05:33;;;;;;;204.10;198.13;;;23.10;99.90;;;;;;5034883;28;20313;-91
2023/06/14 06:08:00;;;;;;;177.83;172.43;;;23.30;99.90;;;;;;5035434;28;20197;-87
2023/06/14 06:10:26;;;;;;;187.80;182.00;;;23.80;99.90;;;;;;5035401;28;20276;-90
2023/06/14 06:12:54;;;;;;;177.15;171.65;;;23.80;99.90;;;;;;5034769;28;20214;-89
2023/06/14 06:15:20;;;;;;;169.07;163.95;;;23.90;99.90;;;;;;5034281;28;20271;-88
2023/06/14 06:17:46;;;;;;;168.13;163.02;;;23.80;99.90;;;;;;5035901;28;20712;-89
2023/06/14 06:20:12;;;;;;;157.80;152.80;;;23.80;99.90;;;;;;5049690;28;20214;-88
2023/06/14 06:22:38;;;;;;;142.88;138.52;;;23.40;99.90;;;;;;5052459;28;20234;-87
2023/06/14 06:25:06;;;;;;;151.43;146.57;;;23.20;99.90;;;;;;5050419;28;20228;-90
2023/06/14 06:27:32;;;;;;;137.55;132.98;;;23.00;99.90;;;;;;5033275;28;20213;-88
2023/06/14 06:29:58;;;;;;;127.43;123.38;;;23.70;99.90;;;;;;5050613;28;20218;-89
2023/06/14 06:32:23;;;;;;;125.40;121.28;;;23.80;99.90;;;;;;5035994;28;20193;-88
2023/06/14 06:34:50;;;;;;;126.22;122.40;;;23.40;99.90;;;;;;5031753;28;20655;-89
2023/06/14 06:37:15;;;;;;;117.72;114.03;;;23.00;99.90;;;;;;5032740;28;20219;-90
2023/06/14 06:39:41;;;;;;;114.78;111.05;;;23.40;99.90;;;;;;5035609;28;20229;-90
2023/06/14 06:42:07;;;;;;;117.00;113.38;;;23.40;99.90;;;;;;5035676;28;20265;-89
2023/06/14 06:44:33;;;;;;;117.15;113.20;;;23.40;99.90;;;;;;5031723;28;20223;-88
2023/06/14 06:46:59;;;;;;;112.88;109.05;;;23.40;99.90;;;;;;5034251;28;20281;-88
2023/06/14 06:49:25;;;;;;;110.95;107.45;;;24.00;99.90;;;;;;5053246;28;20229;-88
2023/06/14 06:52:05;;;;;;;120.90;117.22;;;24.40;99.90;;;;;;5019717;28;20218;-89
2023/06/14 06:54:31;;;;;;;112.97;109.45;;;24.70;99.90;;;;;;5002440;28;20264;-88
2023/06/14 06:56:57;;;;;;;111.07;107.32;;;24.20;99.90;;;;;;5032108;28;20222;-89
2023/06/14 06:59:23;;;;;;;107.70;104.35;;;24.30;99.90;;;;;;5053480;28;20218;-88
2023/06/14 07:01:49;;;;;;;105.15;101.85;;;25.10;99.90;;;;;;5053988;28;20244;-89
2023/06/14 07:04:15;;;;;;;100.82;97.53;;;25.50;99.90;;;;;;5040217;28;20263;-88
2023/06/14 07:06:42;;;;;;;94.22;91.22;;;25.40;99.90;;;;;;5035739;28;20766;-88
2023/06/14 07:09:12;;;;;;;85.53;82.47;;;25.40;99.90;;;;;;5052095;28;20847;-88
2023/06/14 07:11:39;;;;;;;84.20;81.43;;;24.80;99.90;;;;;;5050348;28;20593;-89
2023/06/14 07:14:05;;;;;;;91.80;88.82;;;24.30;99.90;;;;;;5035440;28;20285;-87
2023/06/14 07:16:31;;;;;;;89.65;86.22;;;24.00;99.90;;;;;;5033991;28;21115;-89
2023/06/14 07:18:57;;;;;;;81.78;79.15;;;23.30;99.90;;;;;;5036883;28;20686;-88
2023/06/14 07:21:25;;;;;;;88.38;85.57;;;23.30;99.90;;;;;;5036018;28;20244;-89
2023/06/14 07:23:52;;;;;;;74.18;71.68;;;23.70;99.90;;;;;;5035552;28;20225;-89
2023/06/14 07:26:18;;;;;;;67.53;65.30;;;24.40;99.90;;;;;;5035874;28;21067;-88
2023/06/14 07:28:44;;;;;;;73.78;71.38;;;24.00;99.90;;;;;;5035322;28;20197;-89
2023/06/14 07:31:10;;;;;;;68.78;66.32;;;24.40;99.90;;;;;;5031930;28;20223;-88
2023/06/14 07:33:36;;;;;;;65.85;63.75;;;23.90;99.90;;;;;;5043769;28;20214;-88
2023/06/14 07:36:02;;;;;;;69.28;67.05;;;24.00;99.90;;;;;;5069158;28;20760;-89
2023/06/14 07:38:28;;;;;;;66.50;64.30;;;23.70;99.90;;;;;;5020288;28;20844;-89
2023/06/14 07:40:54;;;;;;;73.47;71.15;;;23.20;99.90;;;;;;5043903;28;20218;-89
2023/06/14 07:43:20;;;;;;;71.13;68.88;;;23.10;99.90;;;;;;5032286;28;20762;-89
2023/06/14 07:45:48;;;;;;;67.88;65.65;;;23.00;99.90;;;;;;5014512;28;20683;-89
2023/06/14 07:48:14;;;;;;;76.38;73.88;;;23.10;99.90;;;;;;5034331;28;20750;-89
2023/06/14 07:50:40;;;;;;;63.65;61.45;;;23.90;99.90;;;;;;5032193;28;20226;-89
2023/06/14 07:53:06;;;;;;;71.43;69.05;;;23.80;99.90;;;;;;5016867;28;20190;-88
2023/06/14 07:55:33;;;;;;;73.65;71.32;;;23.70;99.90;;;;;;5037070;28;20201;-89
2023/06/14 07:57:59;;;;;;;70.88;68.57;;;23.20;99.90;;;;;;5049931;28;20221;-88
2023/06/14 08:00:24;;;;;;;63.58;61.45;;;23.40;99.90;;;;;;5034480;28;20603;-90
2023/06/14 08:02:51;;;;;;;61.50;59.20;;;23.70;99.90;;;;;;5037442;28;20702;-87
2023/06/14 08:05:17;;;;;;;59.85;57.65;;;23.30;99.90;;;;;;5034848;28;20201;-89
2023/06/14 08:07:43;;;;;;;79.00;76.47;;;23.00;99.90;;;;;;5034721;28;20187;-91
2023/06/14 08:10:09;;;;;;;65.22;63.00;;;22.80;99.90;;;;;;5039198;28;20222;-88
2023/06/14 08:12:37;;;;;;;60.05;58.08;;;23.00;99.90;;;;;;5054414;28;20355;-89
2023/06/14 08:15:03;;;;;;;55.38;53.55;;;22.90;99.90;;;;;;5052006;28;20250;-88
2023/06/14 08:17:28;;;;;;;69.20;66.88;;;23.00;99.90;;;;;;5051864;28;20696;-89
2023/06/14 08:19:57;;;;;;;58.10;56.17;;;23.30;99.90;;;;;;5033772;28;20225;-88
2023/06/14 08:22:24;;;;;;;73.43;70.93;;;23.30;99.90;;;;;;5035440;28;20300;-89
2023/06/14 08:24:50;;;;;;;62.67;60.58;;;24.00;99.90;;;;;;5019886;28;20217;-90
2023/06/14 08:27:16;;;;;;;59.90;57.90;;;24.10;99.90;;;;;;5035745;28;20226;-89
2023/06/14 08:29:42;;;;;;;58.00;56.08;;;24.10;99.90;;;;;;5034827;28;20349;-89
2023/06/14 08:32:08;;;;;;;66.28;64.05;;;23.70;99.90;;;;;;5050310;28;20198;-88
2023/06/14 08:34:33;;;;;;;56.60;54.38;;;23.50;99.90;;;;;;5052278;28;20640;-89
2023/06/14 08:36:59;;;;;;;75.30;72.68;;;23.10;99.90;;;;;;5034886;28;20214;-89
2023/06/14 08:39:25;;;;;;;62.97;60.55;;;23.60;99.90;;;;;;5034852;28;20248;-88
2023/06/14 08:41:52;;;;;;;63.30;61.28;;;23.30;99.90;;;;;;5034347;28;20210;-90
2023/06/14 08:44:18;;;;;;;61.05;59.05;;;23.40;99.90;;;;;;5036049;28;20187;-88
2023/06/14 08:46:45;;;;;;;63.15;61.03;;;23.30;99.90;;;;;;5038761;28;20191;-90
2023/06/14 08:49:16;;;;;;;56.33;54.42;;;23.20;99.90;;;;;;5038004;28;21049;-88
2023/06/14 08:51:43;;;;;;;44.60;43.13;;;23.40;99.90;;;;;;5036513;28;20210;-88
2023/06/14 08:54:12;;;;;;;64.00;61.75;;;23.80;99.90;;;;;;5051139;28;20206;-89
2023/06/14 08:56:38;;;;;;;58.78;56.83;;;24.00;99.90;;;;;;5036096;28;20679;-89
2023/06/14 08:59:05;;;;;;;60.65;58.60;;;24.20;99.90;;;;;;5035979;28;20340;-87
2023/06/14 09:01:34;;;;;;;54.83;53.00;;;24.60;99.90;;;;;;5036512;28;20226;-88
2023/06/14 09:04:00;;;;;;;57.65;55.50;;;24.00;99.90;;;;;;5053081;28;20213;-89
2023/06/14 09:06:27;;;;;;;51.60;49.88;;;24.00;99.90;;;;;;5035426;28;20218;-89
2023/06/14 09:08:57;;;;;;;50.90;49.08;;;23.90;99.90;;;;;;5039135;28;20218;-88
2023/06/14 09:11:23;;;;;;;53.83;51.65;;;24.10;99.90;;;;;;5039196;28;20265;-87
2023/06/14 09:13:49;;;;;;;60.58;58.10;;;23.80;99.90;;;;;;5037794;28;20199;-90
2023/06/14 09:16:16;;;;;;;57.85;55.83;;;23.50;99.90;;;;;;5037627;28;20252;-90
2023/06/14 09:18:44;;;;;;;51.72;49.78;;;23.60;99.90;;;;;;5054083;28;20295;-89
2023/06/14 09:21:12;;;;;;;65.97;63.78;;;23.90;99.90;;;;;;5036758;28;20652;-89
2023/06/14 09:23:45;;;;;;;71.40;68.90;;;24.20;99.90;;;;;;5055319;28;20258;-86
2023/06/14 09:26:23;;;;;;;75.90;73.50;;;24.20;99.90;;;;;;5053789;28;20178;-89
2023/06/14 09:28:50;;;;;;;60.33;58.22;;;24.70;99.90;;;;;;5053735;28;20190;-88
2023/06/14 09:31:17;;;;;;;56.45;54.58;;;24.50;99.90;;;;;;5039566;28;20214;-90
2023/06/14 09:33:48;;;;;;;72.28;69.95;;;24.90;99.90;;;;;;5052287;28;20226;-89
2023/06/14 09:36:24;;;;;;;71.55;69.15;;;25.50;99.90;;;;;;5038391;28;20222;-86
2023/06/14 09:38:54;;;;;;;68.55;66.30;;;25.60;99.90;;;;;;5035794;28;20790;-86
2023/06/14 09:41:20;;;;;;;68.47;66.20;;;26.10;99.90;;;;;;5039394;28;20186;-90
2023/06/14 09:43:47;;;;;;;71.32;68.93;;;26.10;99.90;;;;;;5022160;28;20281;-89
2023/06/14 09:46:13;;;;;;;69.45;66.95;;;25.60;99.90;;;;;;5020069;28;20306;-88
2023/06/14 09:48:42;;;;;;;63.70;61.60;;;25.50;99.90;;;;;;5034858;28;20215;-89
2023/06/14 09:51:14;;;;;;;66.28;64.13;;;25.60;99.90;;;;;;5018471;28;20230;-89
2023/06/14 09:53:42;;;;;;;64.00;61.85;;;25.30;99.90;;;;;;5036995;28;20675;-91
2023/06/14 09:56:10;;;;;;;62.13;60.03;;;24.80;99.90;;;;;;5037982;28;20238;-88
2023/06/14 09:58:39;;;;;;;61.30;59.20;;;25.10;99.90;;;;;;5034286;28;20198;-90
2023/06/14 10:01:08;;;;;;;67.55;65.38;;;24.70;99.90;;;;;;5051901;28;20428;-90
2023/06/14 10:03:35;;;;;;;63.65;61.40;;;24.60;99.90;;;;;;5035229;28;20344;-89
2023/06/14 10:06:05;;;;;;;67.82;65.63;;;24.90;99.90;;;;;;5038726;28;20259;-90
2023/06/14 10:08:36;;;;;;;69.88;67.55;;;25.10;99.90;;;;;;5039234;28;20671;-90
2023/06/14 10:11:03;;;;;;;57.75;55.85;;;25.00;99.90;;;;;;5053121;28;20202;-89
2023/06/14 10:13:33;;;;;;;56.83;54.92;;;24.90;99.90;;;;;;5035755;28;20749;-91
2023/06/14 10:16:23;;;;;;;61.85;59.65;;;24.80;99.90;;;;;;5050520;28;20531;-90
2023/06/14 10:19:18;;;;;;;61.05;59.08;;;24.70;99.90;;;;;;5036103;28;20376;-90
2023/06/14 10:22:02;;;;;;;53.33;51.50;;;24.80;99.90;;;;;;5053860;28;20249;-90
2023/06/14 10:24:38;;;;;;;74.13;71.78;;;24.60;99.90;;;;;;5053122;28;20230;-90
2023/06/14 10:27:10;;;;;;;57.45;55.45;;;24.90;99.90;;;;;;5036490;28;20214;-90
2023/06/14 10:30:01;;;;;;;64.55;62.42;;;24.80;99.90;;;;;;5050554;28;20229;-92
2023/06/14 10:32:28;;;;;;;48.47;46.88;;;24.60;99.90;;;;;;5049912;28;20209;-89
2023/06/14 10:34:59;;;;;;;52.90;51.13;;;24.40;99.90;;;;;;5034521;28;20272;-88
2023/06/14 10:37:28;;;;;;;53.28;51.55;;;24.40;99.90;;;;;;5052396;28;20252;-88
2023/06/14 10:39:54;;;;;;;104.97;100.28;;;24.20;99.90;;;;;;5032212;28;20321;-88
2023/06/14 10:42:22;;;;;;;53.20;51.50;;;24.10;99.90;;;;;;5049147;28;20290;-89
2023/06/14 10:44:55;;;;;;;53.67;51.70;;;24.20;99.90;;;;;;5033063;28;20218;-88
2023/06/14 10:47:27;;;;;;;48.83;47.20;;;24.40;99.90;;;;;;5050592;28;20558;-89
2023/06/14 10:50:07;;;;;;;55.70;53.70;;;24.40;99.90;;;;;;5037712;28;20191;-90
2023/06/14 10:52:38;;;;;;;50.05;48.42;;;24.30;99.90;;;;;;5053457;28;20205;-89
2023/06/14 10:55:10;;;;;;;56.40;54.40;;;24.30;99.90;;;;;;5031113;28;20207;-89
2023/06/14 10:57:52;;;;;;;51.92;50.17;;;24.60;99.90;;;;;;5047558;28;20313;-89
2023/06/14 11:00:24;;;;;;;63.85;61.55;;;24.50;99.90;;;;;;5035782;28;20234;-89
2023/06/14 11:03:36;;;;;;;52.65;50.90;;;24.10;99.90;;;;;;5038567;28;20222;-86
2023/06/14 11:06:15;;;;;;;47.10;45.45;;;24.00;99.90;;;;;;5037562;28;20217;-92
2023/06/14 11:09:12;;;;;;;50.58;48.88;;;24.00;99.90;;;;;;5035147;28;20312;-88
2023/06/14 11:11:38;;;;;;;46.85;45.05;;;24.10;99.90;;;;;;5050092;28;20264;-89
2023/06/14 11:14:04;;;;;;;49.17;47.58;;;24.30;99.90;;;;;;5035674;28;20205;-88
2023/06/14 11:16:33;;;;;;;57.00;55.05;;;24.30;99.90;;;;;;5032142;28;20792;-89
2023/06/14 11:19:03;;;;;;;67.32;65.03;;;24.10;99.90;;;;;;5018583;28;21045;-89
2023/06/14 11:21:31;;;;;;;66.00;63.70;;;24.10;99.90;;;;;;5035437;28;20691;-89
2023/06/14 11:23:57;;;;;;;61.92;59.67;;;24.20;99.90;;;;;;5049105;28;20222;-88
2023/06/14 11:26:31;;;;;;;61.53;59.50;;;24.00;99.90;;;;;;5048849;28;20194;-90
2023/06/14 11:28:58;;;;;;;62.25;60.00;;;24.20;99.90;;;;;;5053705;28;20254;-88
2023/06/14 11:31:26;;;;;;;54.17;52.35;;;24.10;99.90;;;;;;5033156;28;20309;-91
2023/06/14 11:33:55;;;;;;;59.20;57.20;;;23.90;99.90;;;;;;5030092;28;20237;-88
2023/06/14 11:36:21;;;;;;;48.13;46.35;;;24.10;99.90;;;;;;5028073;28;20260;-88
2023/06/14 11:38:46;;;;;;;50.50;48.75;;;24.00;99.90;;;;;;5030032;28;20672;-89
2023/06/14 11:41:12;;;;;;;52.80;50.83;;;24.10;99.90;;;;;;5010888;28;20248;-88
2023/06/14 11:43:40;;;;;;;55.50;53.70;;;24.10;99.90;;;;;;5026589;28;20191;-89
2023/06/14 11:46:15;;;;;;;58.10;56.17;;;24.10;99.90;;;;;;5030810;28;20210;-89
2023/06/14 11:48:42;;;;;;;47.45;45.75;;;24.00;99.90;;;;;;5031926;28;20263;-87
2023/06/14 11:51:08;;;;;;;74.68;72.32;;;24.00;99.90;;;;;;5036071;28;20807;-88
2023/06/14 11:53:35;;;;;;;69.57;67.20;;;24.40;99.90;;;;;;5048719;28;20226;-88
2023/06/14 11:56:01;;;;;;;72.70;70.28;;;24.30;99.90;;;;;;5015739;28;20304;-90
2023/06/14 11:58:29;;;;;;;84.15;81.45;;;24.20;99.90;;;;;;5036323;28;20252;-88
2023/06/14 12:00:56;;;;;;;84.18;81.53;;;24.00;99.90;;;;;;5034845;28;20388;-88
2023/06/14 12:03:27;;;;;;;77.20;74.43;;;23.90;99.90;;;;;;5038063;28;20255;-88
2023/06/14 12:06:09;;;;;;;106.03;102.50;;;23.90;99.90;;;;;;5055796;28;20235;-87
2023/06/14 12:08:40;;;;;;;108.47;104.82;;;24.00;99.90;;;;;;5037294;28;20228;-89
2023/06/14 12:11:15;;;;;;;113.95;110.45;;;23.90;99.90;;;;;;5038647;28;20185;-89
2023/06/14 12:13:41;;;;;;;112.85;109.35;;;24.00;99.90;;;;;;5038648;28;20178;-89
2023/06/14 12:16:09;;;;;;;90.72;87.90;;;24.00;99.90;;;;;;5037569;28;20231;-88
2023/06/14 12:18:36;;;;;;;97.85;94.68;;;24.00;99.90;;;;;;5054081;28;20264;-89
2023/06/14 12:21:09;;;;;;;122.72;118.97;;;23.60;99.90;;;;;;5020398;28;20222;-87
2023/06/14 12:23:43;;;;;;;159.07;153.70;;;23.60;99.90;;;;;;5050006;28;20234;-89
2023/06/14 12:26:09;;;;;;;85.60;82.78;;;23.70;99.90;;;;;;5037454;28;20198;-87
2023/06/14 12:28:35;;;;;;;155.65;150.93;;;23.90;99.90;;;;;;5033059;28;20191;-89